createdAt,value
2022-08-14T00:00:13.855Z,99715.97
2022-08-14T00:00:50.681Z,99711.44
2022-08-14T00:01:27.943Z,99714.78
2022-08-14T00:02:06.723Z,99725.81
2022-08-14T00:02:44.241Z,99716.97
2022-08-14T00:03:21.961Z,99718.81
2022-08-14T00:04:34.272Z,99712.44
2022-08-14T00:05:02.510Z,99713.28
2022-08-14T00:05:39.692Z,99716.28
2022-08-14T00:06:27.732Z,99718.16
2022-08-14T00:07:06.922Z,99718.16
2022-08-14T00:07:44.220Z,99718.16
2022-08-14T00:08:43.728Z,99721.66
2022-08-14T00:09:27.343Z,99717.13
2022-08-14T00:10:49.906Z,99711.94
2022-08-14T00:11:07.695Z,99716.13
2022-08-14T00:11:44.997Z,99716.28
2022-08-14T00:12:23.727Z,99708.25
2022-08-14T00:13:07.094Z,99714.63
2022-08-14T00:13:52.985Z,99710.59
2022-08-14T00:14:40.397Z,99714.28
2022-08-14T00:15:21.759Z,99709.75
2022-08-14T00:16:00.028Z,99709.75
2022-08-14T00:16:41.106Z,99709.91
2022-08-14T00:17:23.672Z,99707.06
2022-08-14T00:18:06.752Z,99704.53
2022-08-14T00:19:06.261Z,99707.22
2022-08-14T00:20:11.983Z,99704.88
2022-08-14T00:21:28.244Z,99706.38
2022-08-14T00:22:56.207Z,99706.72
2022-08-14T00:23:32.405Z,99700.03
2022-08-14T00:24:29.001Z,99700.88
2022-08-14T00:25:23.566Z,99693.31
2022-08-14T00:28:41.846Z,99684.63
2022-08-14T00:29:27.829Z,99687.13
2022-08-14T00:30:17.433Z,99690.81
2022-08-14T00:31:03.362Z,99681.78
2022-08-14T00:31:56.261Z,99690.31
2022-08-14T00:33:06.113Z,99695.38
2022-08-14T00:33:59.072Z,99685.78
2022-08-14T00:35:09.899Z,99690.31
2022-08-14T00:36:36.866Z,99682.09
2022-08-14T00:38:27.062Z,99687.63
2022-08-14T00:39:14.262Z,99676.09
2022-08-14T00:40:18.818Z,99678.59
2022-08-14T00:41:10.834Z,99679.94
2022-08-14T00:42:02.847Z,99676.91
2022-08-14T00:42:58.468Z,99677.44
2022-08-14T00:43:56.260Z,99678.47
2022-08-14T00:46:05.151Z,99679.91
2022-08-14T00:49:14.486Z,99682.59
2022-08-14T00:50:05.533Z,99683.09
2022-08-14T00:50:51.311Z,99679.94
2022-08-14T00:51:38.910Z,99678.59
2022-08-14T00:52:28.881Z,99680.09
2022-08-14T00:53:16.326Z,99675.22
2022-08-14T00:54:02.914Z,99677.59
2022-08-14T00:54:50.767Z,99674.56
2022-08-14T00:55:38.918Z,99681.78
2022-08-14T00:56:25.355Z,99676.09
2022-08-14T00:57:23.679Z,99668.22
2022-08-14T00:58:11.553Z,99674.75
2022-08-14T00:58:56.423Z,99667.56
2022-08-14T00:59:44.555Z,99675.59
2022-08-14T01:00:37.085Z,99668.38
2022-08-14T01:01:34.501Z,99671.75
2022-08-14T01:02:31.838Z,99666.22
2022-08-14T01:05:20.418Z,99667.88
2022-08-14T01:06:10.530Z,99667.72
2022-08-14T01:06:57.869Z,99668.06
2022-08-14T01:07:56.901Z,99662.72
2022-08-14T01:08:59.336Z,99662.38
2022-08-14T01:09:45.572Z,99663.69
2022-08-14T01:10:38.270Z,99666.03
2022-08-14T01:11:24.778Z,99666.72
2022-08-14T01:12:26.253Z,99662.22
2022-08-14T01:14:33.196Z,99667.72
2022-08-14T01:15:58.676Z,99665.72
2022-08-14T01:16:53.049Z,99662.38
2022-08-14T01:17:44.042Z,99661.88
2022-08-14T01:18:40.173Z,99661.19
2022-08-14T01:19:25.920Z,99655.50
2022-08-14T01:20:27.494Z,99647.47
2022-08-14T01:21:20.151Z,99659.19
2022-08-14T01:22:13.200Z,99654.31
2022-08-14T01:23:16.156Z,99658.50
2022-08-14T01:27:19.924Z,99648.63
2022-08-14T01:28:46.424Z,99646.78
2022-08-14T01:29:58.679Z,99646.94
2022-08-14T01:30:34.283Z,99643.94
2022-08-14T01:31:25.403Z,99639.72
2022-08-14T01:33:59.219Z,99644.09
2022-08-14T01:35:17.358Z,99640.09
2022-08-14T01:36:05.433Z,99639.88
2022-08-14T01:37:00.203Z,99636.69
2022-08-14T01:37:56.555Z,99633.84
2022-08-14T01:38:48.956Z,99625.47
2022-08-14T01:39:40.082Z,99631.66
2022-08-14T01:40:36.443Z,99625.28
2022-08-14T01:43:56.394Z,99623.34
2022-08-14T01:45:57.670Z,99611.97
2022-08-14T01:47:00.994Z,99622.31
2022-08-14T01:47:51.722Z,99622.00
2022-08-14T01:49:01.670Z,99619.81
2022-08-14T01:50:02.010Z,99623.16
2022-08-14T01:52:08.952Z,99618.97
2022-08-14T01:53:12.318Z,99619.31
2022-08-14T01:54:08.079Z,99619.34
2022-08-14T01:54:58.020Z,99617.84
2022-08-14T01:57:02.249Z,99621.50
2022-08-14T01:58:01.351Z,99611.66
2022-08-14T01:58:59.535Z,99609.94
2022-08-14T01:59:45.493Z,99607.75
2022-08-14T02:00:36.025Z,99611.78
2022-08-14T02:01:19.042Z,99609.63
2022-08-14T02:02:02.156Z,99604.91
2022-08-14T02:02:46.736Z,99605.78
2022-08-14T02:06:33.315Z,99606.25
2022-08-14T02:08:08.565Z,99604.59
2022-08-14T06:13:24.535Z,99485.44
2022-08-14T06:14:03.592Z,99489.31
2022-08-14T06:14:35.501Z,99488.66
2022-08-14T06:15:08.319Z,99490.28
2022-08-14T06:15:40.476Z,99495.66
2022-08-14T06:16:12.022Z,99488.44
2022-08-14T06:16:43.541Z,99487.63
2022-08-14T06:17:25.899Z,99491.81
2022-08-14T06:17:59.012Z,99485.59
2022-08-14T06:18:32.283Z,99490.13
2022-08-14T06:19:03.800Z,99489.47
2022-08-14T06:19:36.556Z,99491.97
2022-08-14T06:20:10.365Z,99495.47
2022-08-14T06:20:41.918Z,99493.47
2022-08-14T06:21:13.702Z,99491.13
2022-08-14T06:21:45.209Z,99495.66
2022-08-14T06:22:17.841Z,99485.63
2022-08-14T06:22:50.893Z,99489.16
2022-08-14T06:23:22.841Z,99493.31
2022-08-14T06:23:54.276Z,99489.47
2022-08-14T06:24:26.079Z,99493.16
2022-08-14T06:24:57.678Z,99489.97
2022-08-14T06:25:29.092Z,99491.97
2022-08-14T06:26:00.840Z,99486.31
2022-08-14T06:27:35.174Z,99486.28
2022-08-14T06:28:32.019Z,99494.16
2022-08-14T06:29:32.207Z,99497.00
2022-08-14T06:30:46.302Z,99493.44
2022-08-14T06:35:10.329Z,99490.44
2022-08-14T06:35:54.065Z,99497.66
2022-08-14T06:36:51.785Z,99492.13
2022-08-14T06:49:11.210Z,99483.91
2022-08-14T06:50:06.790Z,99484.41
2022-08-14T06:51:04.286Z,99489.09
2022-08-14T06:52:02.116Z,99486.78
2022-08-14T06:55:12.570Z,99478.06
2022-08-14T06:56:03.939Z,99476.88
2022-08-14T06:56:57.087Z,99482.06
2022-08-14T06:59:22.213Z,99469.03
2022-08-14T07:00:15.191Z,99472.38
2022-08-14T07:01:27.572Z,99476.06
2022-08-14T07:02:22.903Z,99468.34
2022-08-14T07:04:24.605Z,99470.03
2022-08-14T07:05:10.717Z,99468.50
2022-08-14T07:06:11.661Z,99471.84
2022-08-14T07:07:09.309Z,99469.50
2022-08-14T07:08:02.116Z,99466.81
2022-08-14T07:08:55.893Z,99465.00
2022-08-14T07:09:51.037Z,99470.03
2022-08-14T07:10:45.011Z,99467.16
2022-08-14T07:11:43.529Z,99468.69
2022-08-14T07:13:00.974Z,99464.66
2022-08-14T07:13:54.971Z,99465.00
2022-08-14T07:14:49.961Z,99463.97
2022-08-14T07:15:45.288Z,99467.50
2022-08-14T07:16:46.113Z,99468.34
2022-08-14T07:17:52.207Z,99463.97
2022-08-14T07:22:20.449Z,99478.88
2022-08-14T07:23:23.137Z,99466.31
2022-08-14T07:25:21.624Z,99474.00
2022-08-14T07:26:23.669Z,99473.00
2022-08-14T07:27:13.749Z,99469.31
2022-08-14T07:28:03.414Z,99474.66
2022-08-14T07:28:50.453Z,99473.00
2022-08-14T07:29:39.407Z,99474.31
2022-08-14T07:30:34.566Z,99481.19
2022-08-14T07:31:26.242Z,99475.50
2022-08-14T07:32:22.169Z,99482.53
2022-08-14T07:33:28.883Z,99474.47
2022-08-14T07:36:32.358Z,99471.97
2022-08-14T07:37:29.260Z,99472.84
2022-08-14T07:38:24.908Z,99476.16
2022-08-14T07:39:18.116Z,99473.00
2022-08-14T07:45:47.204Z,99457.72
2022-08-14T07:46:39.507Z,99464.75
2022-08-14T07:47:51.018Z,99455.72
2022-08-14T07:48:39.727Z,99457.56
2022-08-14T07:49:29.021Z,99450.53
2022-08-14T07:50:24.115Z,99455.72
2022-08-14T07:51:10.706Z,99453.88
2022-08-14T07:52:00.166Z,99451.19
2022-08-14T07:52:52.550Z,99449.69
2022-08-14T07:53:48.909Z,99450.72
2022-08-14T07:56:56.244Z,99447.50
2022-08-14T08:05:53.125Z,99445.84
2022-08-14T08:06:40.343Z,99448.53
2022-08-14T08:07:34.694Z,99445.19
2022-08-14T08:08:27.259Z,99435.13
2022-08-14T08:10:46.234Z,99443.16
2022-08-14T08:11:25.148Z,99437.47
2022-08-14T08:12:21.232Z,99440.47
2022-08-14T08:15:52.224Z,99427.09
2022-08-14T08:16:37.663Z,99434.28
2022-08-14T08:17:25.084Z,99427.44
2022-08-14T08:20:12.605Z,99423.75
2022-08-14T08:21:00.173Z,99425.75
2022-08-14T08:21:45.654Z,99422.25
2022-08-14T08:22:43.349Z,99420.41
2022-08-14T08:23:40.582Z,99414.06
2022-08-14T08:24:34.382Z,99416.06
2022-08-14T08:25:25.439Z,99413.22
2022-08-14T08:26:17.573Z,99414.69
2022-08-14T08:27:06.328Z,99411.00
2022-08-14T08:28:19.814Z,99410.72
2022-08-14T08:29:33.218Z,99409.69
2022-08-14T08:31:32.724Z,99414.22
2022-08-14T08:32:20.783Z,99415.03
2022-08-14T08:33:20.770Z,99418.75
2022-08-14T08:34:18.351Z,99408.84
2022-08-14T08:35:10.099Z,99409.03
2022-08-14T08:36:05.296Z,99417.38
2022-08-14T08:37:06.606Z,99411.00
2022-08-14T08:38:01.362Z,99410.19
2022-08-14T08:39:18.096Z,99406.31
2022-08-14T08:42:04.238Z,99401.78
2022-08-14T08:43:04.152Z,99399.47
2022-08-14T08:45:11.837Z,99393.09
2022-08-14T08:46:05.106Z,99388.94
2022-08-14T08:46:52.565Z,99394.13
2022-08-14T08:47:48.476Z,99393.59
2022-08-14T08:48:53.917Z,99395.97
2022-08-14T08:50:54.839Z,99388.06
2022-08-14T08:51:42.862Z,99395.75
2022-08-14T08:52:31.680Z,99397.00
2022-08-14T08:53:26.599Z,99392.47
2022-08-14T08:54:20.156Z,99392.00
2022-08-14T08:55:20.912Z,99391.44
2022-08-14T08:56:30.143Z,99396.97
2022-08-14T08:57:34.311Z,99389.59
2022-08-14T08:59:42.185Z,99389.59
2022-08-14T09:00:31.208Z,99384.22
2022-08-14T09:01:18.251Z,99386.72
2022-08-14T09:02:06.636Z,99385.88
2022-08-14T09:03:06.749Z,99382.88
2022-08-14T09:04:01.708Z,99383.41
2022-08-14T09:04:53.493Z,99390.06
2022-08-14T09:05:39.874Z,99390.91
2022-08-14T09:07:01.281Z,99386.56
2022-08-14T09:10:03.637Z,99377.66
2022-08-14T09:14:18.860Z,99389.38
2022-08-14T09:15:11.447Z,99377.00
2022-08-14T09:16:18.500Z,99379.03
2022-08-14T09:17:05.735Z,99377.16
2022-08-14T09:17:59.220Z,99385.22
2022-08-14T09:22:35.173Z,99387.34
2022-08-14T09:24:26.753Z,99391.53
2022-08-14T09:26:00.236Z,99381.31
2022-08-14T09:26:51.856Z,99380.66
2022-08-14T09:27:40.722Z,99378.16
2022-08-14T09:28:30.593Z,99377.28
2022-08-14T09:29:29.406Z,99380.81
2022-08-14T09:30:33.576Z,99372.78
2022-08-14T09:31:43.041Z,99369.59
2022-08-14T09:32:58.883Z,99372.78
2022-08-14T09:33:56.660Z,99374.97
2022-08-14T09:35:04.531Z,99368.59
2022-08-14T09:36:14.475Z,99377.28
2022-08-14T09:37:02.674Z,99373.78
2022-08-14T09:37:55.173Z,99373.78
2022-08-14T09:38:45.300Z,99374.78
2022-08-14T09:39:48.395Z,99375.47
2022-08-14T09:42:20.610Z,99378.31
2022-08-14T09:46:28.282Z,99372.78
2022-08-14T09:47:15.947Z,99368.91
2022-08-14T09:48:05.489Z,99366.91
2022-08-14T09:48:52.325Z,99369.75
2022-08-14T09:49:53.302Z,99366.41
2022-08-14T09:50:45.623Z,99364.56
2022-08-14T09:51:44.690Z,99362.72
2022-08-14T09:52:48.793Z,99355.31
2022-08-14T09:56:13.381Z,99345.47
2022-08-14T09:57:20.505Z,99350.31
2022-08-14T10:00:52.843Z,99350.16
2022-08-14T10:01:52.601Z,99352.00
2022-08-14T10:02:46.133Z,99353.69
2022-08-14T10:03:49.660Z,99353.50
2022-08-14T10:07:09.510Z,99343.97
2022-08-14T10:10:23.371Z,99342.97
2022-08-14T10:12:29.560Z,99326.88
2022-08-14T10:13:27.232Z,99329.38
2022-08-14T10:16:25.691Z,99330.84
2022-08-14T10:17:21.543Z,99317.81
2022-08-14T10:18:18.379Z,99321.13
2022-08-14T10:20:41.074Z,99320.78
2022-08-14T10:21:45.741Z,99317.09
2022-08-14T10:23:14.896Z,99323.28
2022-08-14T10:23:59.355Z,99323.63
2022-08-14T10:24:54.496Z,99321.81
2022-08-14T10:25:56.087Z,99318.28
2022-08-14T10:26:57.509Z,99314.13
2022-08-14T10:29:18.513Z,99299.16
2022-08-14T10:30:26.225Z,99300.38
2022-08-14T10:32:29.215Z,99296.66
2022-08-14T10:33:42.767Z,99288.63
2022-08-14T10:34:52.738Z,99282.91
2022-08-14T10:35:54.520Z,99282.25
2022-08-14T10:36:48.056Z,99282.78
2022-08-14T10:38:38.966Z,99290.94
2022-08-14T10:39:29.379Z,99281.25
2022-08-14T10:41:14.417Z,99289.94
2022-08-14T10:41:55.387Z,99289.13
2022-08-14T10:42:38.349Z,99287.44
2022-08-14T10:43:24.961Z,99288.25
2022-08-14T10:44:21.246Z,99287.91
2022-08-14T10:45:05.908Z,99283.38
2022-08-14T10:46:03.925Z,99272.66
2022-08-14T10:47:40.564Z,99272.66
2022-08-14T10:48:09.527Z,99279.03
2022-08-14T10:49:02.387Z,99271.66
2022-08-14T10:49:39.860Z,99263.97
2022-08-14T10:50:18.800Z,99269.16
2022-08-14T10:50:57.241Z,99268.97
2022-08-14T10:51:39.560Z,99266.47
2022-08-14T10:52:28.467Z,99270.81
2022-08-14T10:53:15.287Z,99271.19
2022-08-14T10:53:57.451Z,99264.81
2022-08-14T10:54:40.073Z,99265.00
2022-08-14T10:55:25.415Z,99271.00
2022-08-14T10:56:21.890Z,99272.88
2022-08-14T10:57:20.435Z,99278.41
2022-08-14T10:57:56.942Z,99268.16
2022-08-14T10:58:34.498Z,99254.75
2022-08-14T10:59:11.553Z,99259.47
2022-08-14T10:59:48.756Z,99264.44
2022-08-14T11:00:30.345Z,99262.78
2022-08-14T11:01:17.185Z,99260.28
2022-08-14T11:02:03.523Z,99260.09
2022-08-14T11:02:50.198Z,99267.28
2022-08-14T11:03:55.884Z,99259.94
2022-08-14T11:04:39.282Z,99259.06
2022-08-14T11:05:17.716Z,99256.22
2022-08-14T11:05:56.306Z,99263.44
2022-08-14T11:06:33.041Z,99261.75
2022-08-14T11:07:19.283Z,99261.75
2022-08-14T11:07:56.343Z,99256.22
2022-08-14T11:08:33.299Z,99265.09
2022-08-14T11:09:16.861Z,99258.91
2022-08-14T11:09:59.281Z,99261.41
2022-08-14T11:10:43.226Z,99264.44
2022-08-14T11:11:23.272Z,99259.06
2022-08-14T11:12:44.092Z,99262.59
2022-08-14T11:12:58.911Z,99258.25
2022-08-14T11:13:36.285Z,99261.56
2022-08-14T11:14:12.734Z,99260.09
2022-08-14T11:14:58.513Z,99262.44
2022-08-14T11:15:41.035Z,99269.44
2022-08-14T11:16:24.886Z,99261.56
2022-08-14T11:17:06.883Z,99256.03
2022-08-14T11:17:51.051Z,99264.94
2022-08-14T11:18:39.887Z,99259.38
2022-08-14T11:19:19.123Z,99253.00
2022-08-14T11:20:03.084Z,99250.50
2022-08-14T11:20:41.496Z,99251.34
2022-08-14T11:21:21.380Z,99252.00
2022-08-14T11:21:58.409Z,99257.16
2022-08-14T11:22:52.460Z,99245.97
2022-08-14T11:23:37.735Z,99249.31
2022-08-14T11:24:50.712Z,99249.31
2022-08-14T11:25:12.438Z,99243.94
2022-08-14T11:25:54.512Z,99253.34
2022-08-14T11:26:36.520Z,99248.00
2022-08-14T11:27:13.476Z,99241.63
2022-08-14T11:27:51.170Z,99245.31
2022-08-14T11:28:47.522Z,99248.66
2022-08-14T11:29:26.824Z,99253.44
2022-08-14T11:30:51.516Z,99249.78
2022-08-14T11:31:04.429Z,99249.13
2022-08-14T11:31:44.132Z,99242.28
2022-08-14T11:32:23.561Z,99248.94
2022-08-14T11:33:04.316Z,99243.31
2022-08-14T11:33:44.771Z,99245.81
2022-08-14T11:34:32.168Z,99233.69
2022-08-14T11:35:16.757Z,99238.22
2022-08-14T11:36:04.354Z,99239.88
2022-08-14T11:37:09.756Z,99234.91
2022-08-14T11:37:55.444Z,99238.22
2022-08-14T11:38:31.835Z,99225.81
2022-08-14T11:39:10.797Z,99227.50
2022-08-14T11:39:47.791Z,99232.88
2022-08-14T11:40:29.377Z,99227.50
2022-08-14T11:41:07.557Z,99227.50
2022-08-14T11:41:46.620Z,99220.81
2022-08-14T11:42:58.351Z,99225.38
2022-08-14T11:43:30.656Z,99225.00
2022-08-14T11:44:17.462Z,99218.59
2022-08-14T11:44:56.623Z,99222.13
2022-08-14T11:45:37.099Z,99215.47
2022-08-14T11:46:17.695Z,99204.56
2022-08-14T11:47:09.931Z,99211.78
2022-08-14T11:48:12.860Z,99213.63
2022-08-14T11:49:03.784Z,99212.41
2022-08-14T11:49:51.934Z,99209.91
2022-08-14T11:50:37.929Z,99208.09
2022-08-14T11:51:30.485Z,99208.47
2022-08-14T11:52:07.636Z,99214.47
2022-08-14T11:52:46.168Z,99206.41
2022-08-14T11:53:27.065Z,99203.19
2022-08-14T11:54:10.208Z,99206.88
2022-08-14T11:54:48.048Z,99204.84
2022-08-14T11:55:25.689Z,99198.66
2022-08-14T11:56:05.581Z,99204.19
2022-08-14T11:56:42.575Z,99205.03
2022-08-14T11:57:19.723Z,99206.88
2022-08-14T11:58:08.751Z,99203.66
2022-08-14T11:58:46.811Z,99210.38
2022-08-14T11:59:33.252Z,99199.47
2022-08-14T12:00:14.877Z,99207.53
2022-08-14T12:00:56.278Z,99202.84
2022-08-14T12:01:38.050Z,99201.63
2022-08-14T12:03:01.703Z,99206.97
2022-08-14T12:03:19.960Z,99201.25
2022-08-14T12:04:32.360Z,99203.75
2022-08-14T12:05:14.140Z,99194.22
2022-08-14T12:05:59.157Z,99203.09
2022-08-14T12:06:49.174Z,99204.94
2022-08-14T12:07:28.824Z,99208.00
2022-08-14T12:08:11.173Z,99202.25
2022-08-14T12:08:52.787Z,99207.81
2022-08-14T12:09:35.154Z,99198.94
2022-08-14T12:10:27.167Z,99201.44
2022-08-14T12:11:08.997Z,99208.84
2022-08-14T12:11:51.523Z,99195.44
2022-08-14T12:12:35.630Z,99201.63
2022-08-14T12:13:27.398Z,99207.16
2022-08-14T12:14:30.229Z,99203.28
2022-08-14T12:15:11.155Z,99210.28
2022-08-14T12:15:51.597Z,99206.63
2022-08-14T12:16:32.701Z,99208.28
2022-08-14T12:17:13.382Z,99204.94
2022-08-14T12:17:53.150Z,99201.63
2022-08-14T12:18:33.864Z,99202.25
2022-08-14T12:19:17.205Z,99203.94
2022-08-14T12:19:58.907Z,99205.59
2022-08-14T12:20:45.557Z,99199.22
2022-08-14T12:21:20.638Z,99201.88
2022-08-14T12:21:59.452Z,99198.22
2022-08-14T12:22:39.979Z,99192.19
2022-08-14T12:23:24.918Z,99199.38
2022-08-14T12:24:35.861Z,99197.56
2022-08-14T12:25:15.002Z,99201.25
2022-08-14T12:26:32.205Z,99195.88
2022-08-14T12:27:25.534Z,99197.56
2022-08-14T12:28:26.962Z,99198.56
2022-08-14T12:29:23.382Z,99193.38
2022-08-14T12:30:11.864Z,99193.38
2022-08-14T12:30:59.100Z,99197.56
2022-08-14T12:31:44.524Z,99192.38
2022-08-14T12:33:31.287Z,99195.72
2022-08-14T12:34:24.113Z,99192.19
2022-08-14T12:35:13.876Z,99188.66
2022-08-14T12:36:18.332Z,99194.22
2022-08-14T12:38:25.568Z,99183.50
2022-08-14T12:39:27.909Z,99183.13
2022-08-14T12:40:38.780Z,99184.97
2022-08-14T12:41:34.273Z,99175.44
2022-08-14T12:42:34.723Z,99178.13
2022-08-14T12:43:31.133Z,99174.44
2022-08-14T12:44:29.976Z,99177.75
2022-08-14T12:45:17.646Z,99173.63
2022-08-14T12:46:11.662Z,99177.31
2022-08-14T12:47:10.318Z,99170.94
2022-08-14T12:48:20.598Z,99170.75
2022-08-14T12:49:11.226Z,99162.53
2022-08-14T12:50:03.670Z,99165.38
2022-08-14T12:50:49.700Z,99162.72
2022-08-14T12:51:33.707Z,99155.50
2022-08-14T12:52:36.112Z,99158.53
2022-08-14T12:53:38.437Z,99154.47
2022-08-14T12:54:54.725Z,99156.31
2022-08-14T12:56:17.648Z,99154.66
2022-08-14T12:56:49.165Z,99146.44
2022-08-14T12:57:42.965Z,99148.94
2022-08-14T12:58:51.643Z,99146.25
2022-08-14T12:59:37.024Z,99145.22
2022-08-14T13:01:59.861Z,99141.91
2022-08-14T14:33:23.086Z,99014.50
2022-08-14T14:34:07.732Z,99016.34
2022-08-14T14:34:44.290Z,99011.59
2022-08-14T14:35:16.640Z,99010.78
2022-08-14T14:35:48.146Z,99005.22
2022-08-14T14:36:21.623Z,99014.50
2022-08-14T14:36:55.583Z,99011.81
2022-08-14T14:37:27.030Z,99011.16
2022-08-14T14:37:58.837Z,99007.47
2022-08-14T14:38:34.800Z,99011.16
2022-08-14T14:39:06.404Z,99002.09
2022-08-14T14:40:50.461Z,99002.94
2022-08-14T14:40:54.291Z,99007.47
2022-08-14T14:41:21.041Z,98997.56
2022-08-14T14:41:56.164Z,99003.78
2022-08-14T14:42:32.282Z,99004.78
2022-08-14T14:43:03.920Z,99006.06
2022-08-14T14:43:36.998Z,99003.13
2022-08-14T14:44:10.423Z,99000.06
2022-08-14T14:44:45.004Z,99000.06
2022-08-14T14:45:19.446Z,99002.75
2022-08-14T14:45:50.742Z,98997.38
2022-08-14T14:46:36.083Z,99001.09
2022-08-14T14:47:09.073Z,98998.59
2022-08-14T14:47:42.643Z,99002.09
2022-08-14T14:48:14.219Z,98999.06
2022-08-14T14:48:54.576Z,98998.41
2022-08-14T14:49:42.139Z,98998.19
2022-08-14T14:50:18.345Z,98998.19
2022-08-14T14:50:50.241Z,98995.31
2022-08-14T14:51:21.547Z,98991.63
2022-08-14T14:51:52.866Z,98999.69
2022-08-14T14:52:27.741Z,99001.34
2022-08-14T14:53:12.226Z,98982.59
2022-08-14T14:53:44.997Z,98994.94
2022-08-14T14:54:17.242Z,98999.50
2022-08-14T14:54:49.100Z,98992.66
2022-08-14T14:55:20.984Z,98987.94
2022-08-14T14:56:47.804Z,98997.00
2022-08-14T14:56:47.856Z,98993.31
2022-08-14T14:57:25.728Z,98988.94
2022-08-14T14:58:01.835Z,98988.94
2022-08-14T14:58:38.808Z,98987.28
2022-08-14T14:59:13.041Z,98986.66
2022-08-14T14:59:44.342Z,98984.59
2022-08-14T15:00:19.814Z,98996.00
2022-08-14T15:00:53.429Z,98987.28
2022-08-14T15:01:26.321Z,98994.13
2022-08-14T15:02:00.149Z,98995.31
2022-08-14T15:02:36.648Z,98990.63
2022-08-14T15:03:08.323Z,98993.69
2022-08-14T15:03:40.636Z,98986.47
2022-08-14T15:04:20.335Z,98995.72
2022-08-14T15:04:52.346Z,98993.06
2022-08-14T15:05:23.655Z,98987.47
2022-08-14T15:05:59.556Z,98997.56
2022-08-14T15:06:33.495Z,98993.06
2022-08-14T15:07:05.299Z,98992.00
2022-08-14T15:07:37.150Z,98995.50
2022-08-14T15:08:08.481Z,98993.88
2022-08-14T15:08:56.744Z,98991.19
2022-08-14T15:09:30.888Z,98990.38
2022-08-14T15:10:02.639Z,98990.38
2022-08-14T15:10:38.231Z,98991.00
2022-08-14T15:11:13.633Z,98982.09
2022-08-14T15:11:45.573Z,98990.38
2022-08-14T15:12:55.238Z,98985.00
2022-08-14T15:13:08.440Z,98993.88
2022-08-14T15:13:43.351Z,98993.88
2022-08-14T15:14:54.859Z,98989.31
2022-08-14T15:15:16.207Z,98992.19
2022-08-14T15:15:47.692Z,98986.66
2022-08-14T15:16:24.865Z,98992.00
2022-08-14T15:16:59.192Z,98991.00
2022-08-14T15:17:35.103Z,98991.81
2022-08-14T15:18:09.995Z,98992.66
2022-08-14T15:18:58.252Z,98983.59
2022-08-14T15:19:29.589Z,98988.94
2022-08-14T15:20:03.224Z,98988.94
2022-08-14T15:20:34.526Z,98986.28
2022-08-14T15:21:05.938Z,98982.78
2022-08-14T15:21:37.595Z,98986.09
2022-08-14T15:22:10.584Z,98981.91
2022-08-14T15:22:43.555Z,98985.25
2022-08-14T15:23:22.898Z,98985.25
2022-08-14T15:23:54.251Z,98987.94
2022-08-14T15:24:26.883Z,98989.59
2022-08-14T15:24:58.485Z,98987.94
2022-08-14T15:25:29.821Z,98992.00
2022-08-14T15:26:01.122Z,98988.94
2022-08-14T15:26:32.670Z,98983.59
2022-08-14T15:27:05.042Z,98982.97
2022-08-14T15:27:37.629Z,98984.78
2022-08-14T15:28:21.495Z,98983.97
2022-08-14T15:29:02.811Z,98984.78
2022-08-14T15:29:36.993Z,98982.31
2022-08-14T15:30:08.815Z,98981.09
2022-08-14T15:30:40.568Z,98983.97
2022-08-14T15:31:11.909Z,98981.09
2022-08-14T15:31:43.189Z,98977.59
2022-08-14T15:32:14.469Z,98978.59
2022-08-14T15:32:48.288Z,98979.44
2022-08-14T15:33:19.596Z,98981.28
2022-08-14T15:34:13.465Z,98974.91
2022-08-14T15:34:51.146Z,98977.22
2022-08-14T15:35:25.602Z,98975.72
2022-08-14T15:36:01.578Z,98965.81
2022-08-14T15:36:32.944Z,98978.59
2022-08-14T15:37:04.872Z,98976.56
2022-08-14T15:37:36.186Z,98969.56
2022-08-14T15:38:13.850Z,98967.88
2022-08-14T15:38:49.223Z,98965.00
2022-08-14T15:39:20.575Z,98969.56
2022-08-14T15:39:53.049Z,98970.38
2022-08-14T15:40:24.542Z,98969.56
2022-08-14T15:40:56.321Z,98966.88
2022-08-14T15:41:33.719Z,98966.25
2022-08-14T15:42:15.566Z,98963.34
2022-08-14T15:42:48.786Z,98968.91
2022-08-14T15:43:20.291Z,98961.50
2022-08-14T15:43:54.223Z,98964.19
2022-08-14T15:44:31.350Z,98966.88
2022-08-14T15:45:07.280Z,98966.50
2022-08-14T15:45:38.608Z,98957.16
2022-08-14T15:46:10.058Z,98955.78
2022-08-14T15:47:01.352Z,98958.25
2022-08-14T15:47:33.255Z,98959.28
2022-08-14T15:48:14.001Z,98956.78
2022-08-14T15:48:55.768Z,98962.13
2022-08-14T15:49:28.601Z,98956.59
2022-08-14T15:50:07.509Z,98958.44
2022-08-14T15:50:38.900Z,98956.59
2022-08-14T15:51:10.181Z,98955.09
2022-08-14T15:51:42.105Z,98954.09
2022-08-14T15:52:14.799Z,98955.09
2022-08-14T15:53:03.510Z,98954.28
2022-08-14T15:53:35.433Z,98955.09
2022-08-14T15:54:07.349Z,98947.91
2022-08-14T15:54:42.803Z,98948.09
2022-08-14T15:55:14.539Z,98954.28
2022-08-14T15:55:46.265Z,98951.59
2022-08-14T15:56:32.782Z,98955.09
2022-08-14T15:57:09.229Z,98952.22
2022-08-14T15:58:02.144Z,98960.09
2022-08-14T15:58:32.194Z,98954.72
2022-08-14T15:59:04.074Z,98950.03
2022-08-14T15:59:35.775Z,98951.03
2022-08-14T16:00:11.571Z,98960.75
2022-08-14T16:00:59.388Z,98956.41
2022-08-14T16:01:52.833Z,98954.72
2022-08-14T16:02:24.409Z,98952.72
2022-08-14T16:02:56.027Z,98961.75
2022-08-14T16:03:35.281Z,98952.03
2022-08-14T16:04:08.599Z,98953.09
2022-08-14T16:04:50.623Z,98954.09
2022-08-14T16:05:25.414Z,98953.09
2022-08-14T16:05:57.046Z,98951.22
2022-08-14T16:06:28.370Z,98953.91
2022-08-14T16:06:59.830Z,98955.78
2022-08-14T16:07:31.112Z,98944.84
2022-08-14T16:08:02.399Z,98955.97
2022-08-14T16:08:35.149Z,98945.41
2022-08-14T16:09:11.072Z,98942.75
2022-08-14T16:09:42.936Z,98947.72
2022-08-14T16:10:29.201Z,98945.22
2022-08-14T16:11:02.562Z,98936.53
2022-08-14T16:11:33.878Z,98943.56
2022-08-14T16:12:08.481Z,98938.81
2022-08-14T16:12:54.535Z,98944.38
2022-08-14T16:13:41.742Z,98947.25
2022-08-14T16:14:13.995Z,98941.06
2022-08-14T16:14:52.650Z,98940.06
2022-08-14T16:15:24.212Z,98941.50
2022-08-14T16:15:55.549Z,98940.88
2022-08-14T16:16:34.473Z,98938.63
2022-08-14T16:17:18.364Z,98929.97
2022-08-14T16:17:49.638Z,98934.50
2022-08-14T16:18:21.686Z,98943.00
2022-08-14T16:18:53.314Z,98939.50
2022-08-14T16:19:24.653Z,98934.94
2022-08-14T16:19:56.870Z,98932.91
2022-08-14T16:20:42.262Z,98934.94
2022-08-14T16:21:16.691Z,98936.16
2022-08-14T16:22:02.030Z,98939.69
2022-08-14T16:23:10.444Z,98929.78
2022-08-14T16:23:36.215Z,98933.47
2022-08-14T16:24:07.743Z,98933.47
2022-08-14T16:25:01.967Z,98936.16
2022-08-14T16:25:36.106Z,98932.66
2022-08-14T16:26:07.516Z,98930.59
2022-08-14T16:26:51.793Z,98929.97
2022-08-14T16:27:37.051Z,98927.28
2022-08-14T16:28:27.120Z,98928.28
2022-08-14T16:29:02.842Z,98932.66
2022-08-14T16:29:34.857Z,98919.88
2022-08-14T16:30:06.848Z,98927.91
2022-08-14T16:30:42.182Z,98924.59
2022-08-14T16:31:13.492Z,98931.44
2022-08-14T16:31:44.840Z,98925.22
2022-08-14T16:32:32.614Z,98923.22
2022-08-14T16:33:06.886Z,98928.94
2022-08-14T16:33:58.947Z,98930.59
2022-08-14T16:34:45.964Z,98927.91
2022-08-14T16:35:19.868Z,98921.91
2022-08-14T16:35:55.718Z,98917.56
2022-08-14T16:36:31.690Z,98919.03
2022-08-14T16:37:03.112Z,98922.56
2022-08-14T16:37:36.285Z,98919.03
2022-08-14T16:38:15.128Z,98922.94
2022-08-14T16:39:00.134Z,98922.75
2022-08-14T16:39:31.555Z,98923.78